sensor_id;sensor_type;location;lat;lon;timestamp;pressure;altitude;pressure_sealevel;temperature;humidity
61478;BME280;47345;52.334;10.392;2023-04-20T00:01:08;101388.15;;;4.78;89.30
61478;BME280;47345;52.334;10.392;2023-04-20T00:03:40;101391.27;;;4.79;88.89
61478;BME280;47345;52.334;10.392;2023-04-20T00:06:11;101387.50;;;4.79;89.12
61478;BME280;47345;52.334;10.392;2023-04-20T00:08:42;101389.14;;;4.82;88.95
61478;BME280;47345;52.334;10.392;2023-04-20T00:11:13;101384.59;;;4.84;89.08
61478;BME280;47345;52.334;10.392;2023-04-20T00:13:43;101380.58;;;4.86;88.79
61478;BME280;47345;52.334;10.392;2023-04-20T00:16:14;101378.39;;;4.91;88.81
61478;BME280;47345;52.334;10.392;2023-04-20T00:18:46;101374.64;;;4.96;89.11
61478;BME280;47345;52.334;10.392;2023-04-20T00:21:17;101372.45;;;4.97;88.91
61478;BME280;47345;52.334;10.392;2023-04-20T00:23:52;101372.64;;;4.99;88.91
61478;BME280;47345;52.334;10.392;2023-04-20T00:26:22;101367.18;;;4.99;88.63
61478;BME280;47345;52.334;10.392;2023-04-20T00:28:53;101367.86;;;5.00;88.55
61478;BME280;47345;52.334;10.392;2023-04-20T00:31:24;101362.27;;;5.00;88.74
61478;BME280;47345;52.334;10.392;2023-04-20T00:33:54;101360.78;;;5.00;88.85
61478;BME280;47345;52.334;10.392;2023-04-20T00:36:25;101359.45;;;4.99;88.81
61478;BME280;47345;52.334;10.392;2023-04-20T00:38:56;101360.43;;;5.00;88.81
61478;BME280;47345;52.334;10.392;2023-04-20T00:41:27;101358.09;;;5.02;88.87
61478;BME280;47345;52.334;10.392;2023-04-20T00:43:58;101356.94;;;5.02;88.91
61478;BME280;47345;52.334;10.392;2023-04-20T00:46:29;101354.54;;;5.03;88.56
61478;BME280;47345;52.334;10.392;2023-04-20T00:49:00;101351.60;;;5.04;88.64
61478;BME280;47345;52.334;10.392;2023-04-20T00:51:30;101349.39;;;5.04;88.60
61478;BME280;47345;52.334;10.392;2023-04-20T00:54:01;101339.85;;;5.02;88.39
61478;BME280;47345;52.334;10.392;2023-04-20T00:56:32;101328.03;;;5.02;88.54
61478;BME280;47345;52.334;10.392;2023-04-20T00:59:03;101327.08;;;5.03;88.41
61478;BME280;47345;52.334;10.392;2023-04-20T01:01:34;101319.88;;;5.05;88.55
61478;BME280;47345;52.334;10.392;2023-04-20T01:04:05;101318.50;;;5.06;88.48
61478;BME280;47345;52.334;10.392;2023-04-20T01:06:36;101325.02;;;5.09;88.32
61478;BME280;47345;52.334;10.392;2023-04-20T01:09:07;101316.23;;;5.12;88.27
61478;BME280;47345;52.334;10.392;2023-04-20T01:11:39;101317.01;;;5.15;88.27
61478;BME280;47345;52.334;10.392;2023-04-20T01:14:09;101310.01;;;5.16;88.16
61478;BME280;47345;52.334;10.392;2023-04-20T01:16:40;101309.13;;;5.16;87.98
61478;BME280;47345;52.334;10.392;2023-04-20T01:19:10;101305.35;;;5.16;88.06
61478;BME280;47345;52.334;10.392;2023-04-20T01:21:41;101307.91;;;5.17;88.02
61478;BME280;47345;52.334;10.392;2023-04-20T01:24:11;101307.33;;;5.20;88.15
61478;BME280;47345;52.334;10.392;2023-04-20T01:26:42;101303.47;;;5.20;88.13
61478;BME280;47345;52.334;10.392;2023-04-20T01:29:13;101299.34;;;5.22;88.13
61478;BME280;47345;52.334;10.392;2023-04-20T01:31:44;101292.84;;;5.23;88.21
61478;BME280;47345;52.334;10.392;2023-04-20T01:34:15;101293.67;;;5.26;88.29
61478;BME280;47345;52.334;10.392;2023-04-20T01:36:45;101297.25;;;5.28;88.20
61478;BME280;47345;52.334;10.392;2023-04-20T01:39:17;101295.71;;;5.27;88.27
61478;BME280;47345;52.334;10.392;2023-04-20T01:41:49;101288.06;;;5.29;88.01
61478;BME280;47345;52.334;10.392;2023-04-20T01:44:19;101287.29;;;5.30;88.19
61478;BME280;47345;52.334;10.392;2023-04-20T01:46:50;101285.04;;;5.30;88.06
61478;BME280;47345;52.334;10.392;2023-04-20T01:49:20;101288.16;;;5.31;88.15
61478;BME280;47345;52.334;10.392;2023-04-20T01:51:51;101284.89;;;5.34;88.18
61478;BME280;47345;52.334;10.392;2023-04-20T01:54:22;101284.52;;;5.35;88.15
61478;BME280;47345;52.334;10.392;2023-04-20T01:56:52;101283.92;;;5.36;88.37
61478;BME280;47345;52.334;10.392;2023-04-20T01:59:24;101285.52;;;5.35;88.19
61478;BME280;47345;52.334;10.392;2023-04-20T02:01:54;101283.12;;;5.33;88.24
61478;BME280;47345;52.334;10.392;2023-04-20T02:04:25;101276.58;;;5.34;88.24
61478;BME280;47345;52.334;10.392;2023-04-20T02:06:56;101271.63;;;5.34;88.16
61478;BME280;47345;52.334;10.392;2023-04-20T02:09:27;101270.09;;;5.35;88.08
61478;BME280;47345;52.334;10.392;2023-04-20T02:11:58;101273.08;;;5.38;88.16
61478;BME280;47345;52.334;10.392;2023-04-20T02:14:29;101273.69;;;5.37;88.09
61478;BME280;47345;52.334;10.392;2023-04-20T02:17:00;101270.80;;;5.36;88.10
61478;BME280;47345;52.334;10.392;2023-04-20T02:19:31;101265.42;;;5.35;88.19
61478;BME280;47345;52.334;10.392;2023-04-20T02:22:01;101266.49;;;5.35;88.19
61478;BME280;47345;52.334;10.392;2023-04-20T02:24:32;101266.29;;;5.37;88.19
61478;BME280;47345;52.334;10.392;2023-04-20T02:27:02;101268.47;;;5.37;88.17
61478;BME280;47345;52.334;10.392;2023-04-20T02:29:33;101260.66;;;5.37;88.18
61478;BME280;47345;52.334;10.392;2023-04-20T02:32:04;101263.02;;;5.37;88.14
61478;BME280;47345;52.334;10.392;2023-04-20T02:34:35;101264.23;;;5.38;88.38
61478;BME280;47345;52.334;10.392;2023-04-20T02:37:06;101268.11;;;5.39;88.51
61478;BME280;47345;52.334;10.392;2023-04-20T02:39:37;101260.72;;;5.40;88.48
61478;BME280;47345;52.334;10.392;2023-04-20T02:42:07;101261.08;;;5.43;88.50
61478;BME280;47345;52.334;10.392;2023-04-20T02:44:38;101267.08;;;5.45;88.18
61478;BME280;47345;52.334;10.392;2023-04-20T02:47:08;101266.17;;;5.43;88.26
61478;BME280;47345;52.334;10.392;2023-04-20T02:49:39;101271.21;;;5.43;88.32
61478;BME280;47345;52.334;10.392;2023-04-20T02:52:09;101268.97;;;5.42;88.08
61478;BME280;47345;52.334;10.392;2023-04-20T02:54:40;101266.48;;;5.44;88.10
61478;BME280;47345;52.334;10.392;2023-04-20T02:57:10;101264.82;;;5.46;88.05
61478;BME280;47345;52.334;10.392;2023-04-20T02:59:41;101264.29;;;5.47;87.96
61478;BME280;47345;52.334;10.392;2023-04-20T03:02:12;101256.94;;;5.49;87.92
61478;BME280;47345;52.334;10.392;2023-04-20T03:04:42;101258.23;;;5.52;87.98
61478;BME280;47345;52.334;10.392;2023-04-20T03:07:13;101250.08;;;5.54;87.85
61478;BME280;47345;52.334;10.392;2023-04-20T03:09:44;101254.33;;;5.55;87.83
61478;BME280;47345;52.334;10.392;2023-04-20T03:12:15;101251.00;;;5.55;87.69
61478;BME280;47345;52.334;10.392;2023-04-20T03:14:46;101253.80;;;5.58;87.88
61478;BME280;47345;52.334;10.392;2023-04-20T03:17:17;101255.45;;;5.61;87.79
61478;BME280;47345;52.334;10.392;2023-04-20T03:19:47;101258.73;;;5.61;87.63
61478;BME280;47345;52.334;10.392;2023-04-20T03:22:18;101261.25;;;5.61;87.69
61478;BME280;47345;52.334;10.392;2023-04-20T03:24:48;101262.77;;;5.60;87.70
61478;BME280;47345;52.334;10.392;2023-04-20T03:27:21;101266.02;;;5.59;87.96
61478;BME280;47345;52.334;10.392;2023-04-20T03:29:52;101263.48;;;5.57;88.04
61478;BME280;47345;52.334;10.392;2023-04-20T03:32:23;101261.09;;;5.57;88.17
61478;BME280;47345;52.334;10.392;2023-04-20T03:34:54;101262.83;;;5.58;88.40
61478;BME280;47345;52.334;10.392;2023-04-20T03:37:24;101265.27;;;5.57;88.47
61478;BME280;47345;52.334;10.392;2023-04-20T03:39:55;101269.54;;;5.56;88.65
61478;BME280;47345;52.334;10.392;2023-04-20T03:42:26;101268.00;;;5.55;88.75
61478;BME280;47345;52.334;10.392;2023-04-20T03:44:58;101266.41;;;5.57;88.77
61478;BME280;47345;52.334;10.392;2023-04-20T03:47:29;101267.19;;;5.56;88.79
61478;BME280;47345;52.334;10.392;2023-04-20T03:50:00;101265.77;;;5.56;88.95
61478;BME280;47345;52.334;10.392;2023-04-20T03:52:30;101260.74;;;5.55;88.90
61478;BME280;47345;52.334;10.392;2023-04-20T03:55:02;101258.46;;;5.56;88.94
61478;BME280;47345;52.334;10.392;2023-04-20T03:57:33;101257.17;;;5.57;88.70
61478;BME280;47345;52.334;10.392;2023-04-20T04:00:04;101258.61;;;5.57;88.78
61478;BME280;47345;52.334;10.392;2023-04-20T04:02:35;101257.42;;;5.58;88.80
61478;BME280;47345;52.334;10.392;2023-04-20T04:05:08;101256.07;;;5.57;88.88
61478;BME280;47345;52.334;10.392;2023-04-20T04:07:38;101259.70;;;5.57;88.90
61478;BME280;47345;52.334;10.392;2023-04-20T04:10:10;101257.77;;;5.56;89.06
61478;BME280;47345;52.334;10.392;2023-04-20T04:12:41;101259.84;;;5.57;89.20
61478;BME280;47345;52.334;10.392;2023-04-20T04:15:12;101259.96;;;5.58;89.26
61478;BME280;47345;52.334;10.392;2023-04-20T04:17:43;101260.13;;;5.60;89.09
61478;BME280;47345;52.334;10.392;2023-04-20T04:20:14;101265.25;;;5.61;89.33
61478;BME280;47345;52.334;10.392;2023-04-20T04:22:44;101266.34;;;5.63;89.15
61478;BME280;47345;52.334;10.392;2023-04-20T04:25:16;101263.13;;;5.64;89.02
61478;BME280;47345;52.334;10.392;2023-04-20T04:27:46;101267.27;;;5.66;89.14
61478;BME280;47345;52.334;10.392;2023-04-20T04:30:17;101256.19;;;5.68;89.01
61478;BME280;47345;52.334;10.392;2023-04-20T04:32:48;101255.52;;;5.69;88.95
61478;BME280;47345;52.334;10.392;2023-04-20T04:35:19;101253.69;;;5.71;89.06
61478;BME280;47345;52.334;10.392;2023-04-20T04:37:50;101250.74;;;5.73;89.04
61478;BME280;47345;52.334;10.392;2023-04-20T04:40:22;101249.88;;;5.75;88.79
61478;BME280;47345;52.334;10.392;2023-04-20T04:42:53;101252.09;;;5.76;88.93
61478;BME280;47345;52.334;10.392;2023-04-20T04:45:24;101255.83;;;5.76;88.80
61478;BME280;47345;52.334;10.392;2023-04-20T04:47:54;101260.04;;;5.78;88.74
61478;BME280;47345;52.334;10.392;2023-04-20T04:50:25;101263.09;;;5.80;88.98
61478;BME280;47345;52.334;10.392;2023-04-20T04:52:56;101259.71;;;5.81;88.82
61478;BME280;47345;52.334;10.392;2023-04-20T04:55:26;101261.00;;;5.84;88.71
61478;BME280;47345;52.334;10.392;2023-04-20T04:57:57;101262.54;;;5.87;88.78
61478;BME280;47345;52.334;10.392;2023-04-20T05:00:28;101267.13;;;5.89;88.55
61478;BME280;47345;52.334;10.392;2023-04-20T05:02:59;101264.33;;;5.92;88.51
61478;BME280;47345;52.334;10.392;2023-04-20T05:05:30;101265.50;;;5.97;88.38
61478;BME280;47345;52.334;10.392;2023-04-20T05:08:00;101266.00;;;5.99;88.23
61478;BME280;47345;52.334;10.392;2023-04-20T05:10:31;101265.02;;;6.03;88.03
61478;BME280;47345;52.334;10.392;2023-04-20T05:13:01;101270.29;;;6.06;87.96
61478;BME280;47345;52.334;10.392;2023-04-20T05:15:32;101276.41;;;6.09;87.89
61478;BME280;47345;52.334;10.392;2023-04-20T05:18:03;101273.42;;;6.11;87.99
61478;BME280;47345;52.334;10.392;2023-04-20T05:20:34;101274.66;;;6.13;87.53
61478;BME280;47345;52.334;10.392;2023-04-20T05:23:04;101275.95;;;6.13;87.04
61478;BME280;47345;52.334;10.392;2023-04-20T05:25:35;101279.85;;;6.13;87.22
61478;BME280;47345;52.334;10.392;2023-04-20T05:28:06;101279.52;;;6.15;87.12
61478;BME280;47345;52.334;10.392;2023-04-20T05:30:37;101280.16;;;6.14;87.10
61478;BME280;47345;52.334;10.392;2023-04-20T05:33:07;101282.64;;;6.14;87.11
61478;BME280;47345;52.334;10.392;2023-04-20T05:35:38;101285.42;;;6.15;86.84
61478;BME280;47345;52.334;10.392;2023-04-20T05:38:09;101289.20;;;6.16;86.77
61478;BME280;47345;52.334;10.392;2023-04-20T05:40:39;101293.21;;;6.17;86.88
61478;BME280;47345;52.334;10.392;2023-04-20T05:43:10;101291.79;;;6.18;86.89
61478;BME280;47345;52.334;10.392;2023-04-20T05:45:41;101293.50;;;6.23;86.98
61478;BME280;47345;52.334;10.392;2023-04-20T05:48:12;101292.19;;;6.27;86.93
61478;BME280;47345;52.334;10.392;2023-04-20T05:50:43;101296.23;;;6.31;87.18
61478;BME280;47345;52.334;10.392;2023-04-20T05:53:13;101298.67;;;6.36;87.60
61478;BME280;47345;52.334;10.392;2023-04-20T05:55:44;101299.52;;;6.40;87.60
61478;BME280;47345;52.334;10.392;2023-04-20T05:58:14;101304.21;;;6.45;87.83
61478;BME280;47345;52.334;10.392;2023-04-20T06:00:45;101306.06;;;6.49;87.46
61478;BME280;47345;52.334;10.392;2023-04-20T06:03:16;101303.73;;;6.55;87.77
61478;BME280;47345;52.334;10.392;2023-04-20T06:05:47;101301.39;;;6.59;87.64
61478;BME280;47345;52.334;10.392;2023-04-20T06:08:17;101303.34;;;6.61;87.56
61478;BME280;47345;52.334;10.392;2023-04-20T06:10:48;101304.48;;;6.66;87.48
61478;BME280;47345;52.334;10.392;2023-04-20T06:13:22;101305.19;;;6.68;86.99
61478;BME280;47345;52.334;10.392;2023-04-20T06:15:53;101303.15;;;6.70;87.09
61478;BME280;47345;52.334;10.392;2023-04-20T06:18:23;101306.48;;;6.74;87.34
61478;BME280;47345;52.334;10.392;2023-04-20T06:20:54;101306.13;;;6.77;87.05
61478;BME280;47345;52.334;10.392;2023-04-20T06:23:24;101303.16;;;6.78;86.75
61478;BME280;47345;52.334;10.392;2023-04-20T06:25:55;101305.91;;;6.80;86.64
61478;BME280;47345;52.334;10.392;2023-04-20T06:28:26;101304.08;;;6.80;86.40
61478;BME280;47345;52.334;10.392;2023-04-20T06:30:57;101302.63;;;6.85;86.61
61478;BME280;47345;52.334;10.392;2023-04-20T06:33:28;101305.51;;;6.90;86.58
61478;BME280;47345;52.334;10.392;2023-04-20T06:35:58;101303.84;;;6.93;85.36
61478;BME280;47345;52.334;10.392;2023-04-20T06:38:29;101301.94;;;6.96;85.02
61478;BME280;47345;52.334;10.392;2023-04-20T06:41:00;101305.73;;;6.98;84.26
61478;BME280;47345;52.334;10.392;2023-04-20T06:43:31;101305.98;;;7.01;84.61
61478;BME280;47345;52.334;10.392;2023-04-20T06:46:01;101304.17;;;7.05;84.49
61478;BME280;47345;52.334;10.392;2023-04-20T06:48:32;101305.54;;;7.11;84.76
61478;BME280;47345;52.334;10.392;2023-04-20T06:51:02;101308.91;;;7.17;84.40
61478;BME280;47345;52.334;10.392;2023-04-20T06:53:33;101312.84;;;7.24;84.05
61478;BME280;47345;52.334;10.392;2023-04-20T06:56:04;101317.58;;;7.29;83.13
61478;BME280;47345;52.334;10.392;2023-04-20T06:58:35;101315.36;;;7.34;83.52
61478;BME280;47345;52.334;10.392;2023-04-20T07:01:05;101315.62;;;7.41;83.40
61478;BME280;47345;52.334;10.392;2023-04-20T07:03:36;101315.67;;;7.46;82.95
61478;BME280;47345;52.334;10.392;2023-04-20T07:06:07;101312.37;;;7.51;82.96
61478;BME280;47345;52.334;10.392;2023-04-20T07:08:40;101316.88;;;7.58;83.02
61478;BME280;47345;52.334;10.392;2023-04-20T07:11:10;101318.77;;;7.63;82.94
61478;BME280;47345;52.334;10.392;2023-04-20T07:13:40;101321.77;;;7.69;82.67
61478;BME280;47345;52.334;10.392;2023-04-20T07:16:11;101324.27;;;7.73;81.40
61478;BME280;47345;52.334;10.392;2023-04-20T07:18:42;101321.52;;;7.70;79.96
61478;BME280;47345;52.334;10.392;2023-04-20T07:21:13;101321.35;;;7.68;80.53
61478;BME280;47345;52.334;10.392;2023-04-20T07:23:44;101321.20;;;7.69;80.91
61478;BME280;47345;52.334;10.392;2023-04-20T07:26:16;101318.45;;;7.72;80.66
61478;BME280;47345;52.334;10.392;2023-04-20T07:28:47;101320.91;;;7.73;80.22
61478;BME280;47345;52.334;10.392;2023-04-20T07:31:18;101321.72;;;7.73;79.83
61478;BME280;47345;52.334;10.392;2023-04-20T07:33:49;101321.10;;;7.75;79.60
61478;BME280;47345;52.334;10.392;2023-04-20T07:36:20;101318.46;;;7.79;79.73
61478;BME280;47345;52.334;10.392;2023-04-20T07:38:50;101317.13;;;7.87;79.73
61478;BME280;47345;52.334;10.392;2023-04-20T07:41:21;101321.98;;;7.95;78.77
61478;BME280;47345;52.334;10.392;2023-04-20T07:43:52;101322.71;;;8.01;78.26
61478;BME280;47345;52.334;10.392;2023-04-20T07:46:23;101325.04;;;8.06;77.59
61478;BME280;47345;52.334;10.392;2023-04-20T07:48:54;101332.16;;;8.14;78.08
61478;BME280;47345;52.334;10.392;2023-04-20T07:51:25;101333.89;;;8.27;78.56
61478;BME280;47345;52.334;10.392;2023-04-20T07:53:58;101332.14;;;8.45;78.26
61478;BME280;47345;52.334;10.392;2023-04-20T07:56:29;101336.11;;;8.53;76.20
61478;BME280;47345;52.334;10.392;2023-04-20T07:59:00;101337.33;;;8.56;75.16
61478;BME280;47345;52.334;10.392;2023-04-20T08:01:30;101338.28;;;8.58;74.31
61478;BME280;47345;52.334;10.392;2023-04-20T08:04:01;101342.40;;;8.60;73.16
61478;BME280;47345;52.334;10.392;2023-04-20T08:06:32;101338.39;;;8.63;72.95
61478;BME280;47345;52.334;10.392;2023-04-20T08:09:03;101342.75;;;8.69;73.50
61478;BME280;47345;52.334;10.392;2023-04-20T08:11:33;101344.85;;;8.78;73.94
61478;BME280;47345;52.334;10.392;2023-04-20T08:14:04;101344.70;;;8.88;74.16
61478;BME280;47345;52.334;10.392;2023-04-20T08:16:35;101344.64;;;8.98;73.29
61478;BME280;47345;52.334;10.392;2023-04-20T08:19:05;101341.83;;;9.08;73.57
61478;BME280;47345;52.334;10.392;2023-04-20T08:21:38;101342.45;;;9.20;72.40
61478;BME280;47345;52.334;10.392;2023-04-20T08:24:10;101343.75;;;9.27;71.05
61478;BME280;47345;52.334;10.392;2023-04-20T08:26:43;101346.83;;;9.30;69.59
61478;BME280;47345;52.334;10.392;2023-04-20T08:29:13;101348.05;;;9.36;69.97
61478;BME280;47345;52.334;10.392;2023-04-20T08:31:44;101340.48;;;9.41;69.88
61478;BME280;47345;52.334;10.392;2023-04-20T08:34:17;101334.75;;;9.45;68.26
61478;BME280;47345;52.334;10.392;2023-04-20T08:36:48;101342.63;;;9.48;67.45
61478;BME280;47345;52.334;10.392;2023-04-20T08:39:21;101344.11;;;9.52;68.04
61478;BME280;47345;52.334;10.392;2023-04-20T08:41:53;101344.88;;;9.59;67.06
61478;BME280;47345;52.334;10.392;2023-04-20T08:44:25;101340.77;;;9.62;66.74
61478;BME280;47345;52.334;10.392;2023-04-20T08:46:55;101340.20;;;9.66;65.93
61478;BME280;47345;52.334;10.392;2023-04-20T08:49:28;101338.30;;;9.68;65.79
61478;BME280;47345;52.334;10.392;2023-04-20T08:51:59;101337.85;;;9.72;65.85
61478;BME280;47345;52.334;10.392;2023-04-20T08:54:30;101339.98;;;9.79;66.64
61478;BME280;47345;52.334;10.392;2023-04-20T08:57:03;101338.66;;;9.89;66.67
61478;BME280;47345;52.334;10.392;2023-04-20T08:59:34;101341.10;;;9.98;65.75
61478;BME280;47345;52.334;10.392;2023-04-20T09:02:12;101341.36;;;10.02;64.95
61478;BME280;47345;52.334;10.392;2023-04-20T09:04:41;101344.65;;;9.99;63.86
61478;BME280;47345;52.334;10.392;2023-04-20T09:07:19;101345.09;;;9.95;64.30
61478;BME280;47345;52.334;10.392;2023-04-20T09:09:56;101346.77;;;9.95;64.50
61478;BME280;47345;52.334;10.392;2023-04-20T09:12:27;101347.98;;;9.96;64.95
61478;BME280;47345;52.334;10.392;2023-04-20T09:14:58;101346.86;;;9.96;64.92
61478;BME280;47345;52.334;10.392;2023-04-20T09:17:34;101345.40;;;9.96;64.20
61478;BME280;47345;52.334;10.392;2023-04-20T09:20:06;101344.69;;;9.91;63.77
61478;BME280;47345;52.334;10.392;2023-04-20T09:22:37;101346.27;;;9.90;64.61
61478;BME280;47345;52.334;10.392;2023-04-20T09:25:15;101344.94;;;9.94;61.93
61478;BME280;47345;52.334;10.392;2023-04-20T09:27:56;101346.41;;;9.93;62.76
61478;BME280;47345;52.334;10.392;2023-04-20T09:30:37;101347.15;;;9.98;62.71
61478;BME280;47345;52.334;10.392;2023-04-20T09:33:08;101346.86;;;10.03;62.42
61478;BME280;47345;52.334;10.392;2023-04-20T09:35:41;101346.21;;;10.10;62.65
61478;BME280;47345;52.334;10.392;2023-04-20T09:38:15;101348.27;;;10.18;62.49
61478;BME280;47345;52.334;10.392;2023-04-20T09:40:46;101348.77;;;10.31;63.08
61478;BME280;47345;52.334;10.392;2023-04-20T09:43:20;101353.20;;;10.41;61.79
61478;BME280;47345;52.334;10.392;2023-04-20T09:45:53;101346.45;;;10.45;60.59
61478;BME280;47345;52.334;10.392;2023-04-20T09:48:24;101346.80;;;10.50;61.13
61478;BME280;47345;52.334;10.392;2023-04-20T09:50:55;101346.38;;;10.58;61.69
61478;BME280;47345;52.334;10.392;2023-04-20T09:53:26;101353.06;;;10.60;59.69
61478;BME280;47345;52.334;10.392;2023-04-20T09:55:58;101354.71;;;10.57;60.52
61478;BME280;47345;52.334;10.392;2023-04-20T09:58:32;101351.90;;;10.57;60.45
61478;BME280;47345;52.334;10.392;2023-04-20T10:01:07;101347.04;;;10.52;59.91
61478;BME280;47345;52.334;10.392;2023-04-20T10:03:38;101352.45;;;10.44;59.84
61478;BME280;47345;52.334;10.392;2023-04-20T10:06:20;101354.49;;;10.42;60.72
61478;BME280;47345;52.334;10.392;2023-04-20T10:08:51;101349.11;;;10.46;60.58
61478;BME280;47345;52.334;10.392;2023-04-20T10:11:27;101350.15;;;10.42;59.44
61478;BME280;47345;52.334;10.392;2023-04-20T10:14:18;101350.27;;;10.37;60.39
61478;BME280;47345;52.334;10.392;2023-04-20T10:16:59;101343.55;;;10.30;60.00
61478;BME280;47345;52.334;10.392;2023-04-20T10:19:40;101345.98;;;10.25;61.23
61478;BME280;47345;52.334;10.392;2023-04-20T10:22:12;101352.38;;;10.24;60.08
61478;BME280;47345;52.334;10.392;2023-04-20T10:24:54;101348.27;;;10.22;59.84
61478;BME280;47345;52.334;10.392;2023-04-20T10:27:25;101346.98;;;10.24;60.66
61478;BME280;47345;52.334;10.392;2023-04-20T10:29:55;101343.40;;;10.27;60.05
61478;BME280;47345;52.334;10.392;2023-04-20T10:32:27;101347.68;;;10.29;59.72
61478;BME280;47345;52.334;10.392;2023-04-20T10:35:05;101347.03;;;10.31;59.64
61478;BME280;47345;52.334;10.392;2023-04-20T10:37:47;101347.08;;;10.37;60.31
61478;BME280;47345;52.334;10.392;2023-04-20T10:40:25;101345.60;;;10.51;60.34
61478;BME280;47345;52.334;10.392;2023-04-20T10:42:56;101347.29;;;10.63;60.35
61478;BME280;47345;52.334;10.392;2023-04-20T10:45:35;101346.25;;;10.76;59.34
61478;BME280;47345;52.334;10.392;2023-04-20T10:48:10;101339.42;;;10.87;58.77
61478;BME280;47345;52.334;10.392;2023-04-20T10:50:43;101338.58;;;10.95;59.78
61478;BME280;47345;52.334;10.392;2023-04-20T10:53:20;101336.30;;;11.03;59.08
61478;BME280;47345;52.334;10.392;2023-04-20T10:55:59;101334.54;;;11.08;58.94
61478;BME280;47345;52.334;10.392;2023-04-20T10:58:30;101329.32;;;11.15;59.26
61478;BME280;47345;52.334;10.392;2023-04-20T11:01:02;101333.82;;;11.20;58.09
61478;BME280;47345;52.334;10.392;2023-04-20T11:03:33;101332.67;;;11.23;58.53
61478;BME280;47345;52.334;10.392;2023-04-20T11:06:04;101327.55;;;11.25;57.71
61478;BME280;47345;52.334;10.392;2023-04-20T11:08:41;101322.31;;;11.24;58.00
61478;BME280;47345;52.334;10.392;2023-04-20T11:11:22;101319.77;;;11.21;57.59
61478;BME280;47345;52.334;10.392;2023-04-20T11:14:06;101321.98;;;11.19;58.43
61478;BME280;47345;52.334;10.392;2023-04-20T11:16:38;101316.77;;;11.25;58.89
61478;BME280;47345;52.334;10.392;2023-04-20T11:19:25;101318.55;;;11.31;57.73
61478;BME280;47345;52.334;10.392;2023-04-20T11:21:57;101314.78;;;11.30;56.89
61478;BME280;47345;52.334;10.392;2023-04-20T11:24:29;101310.48;;;11.30;57.45
61478;BME280;47345;52.334;10.392;2023-04-20T11:27:02;101311.40;;;11.34;57.95
61478;BME280;47345;52.334;10.392;2023-04-20T11:29:36;101312.77;;;11.42;58.11
61478;BME280;47345;52.334;10.392;2023-04-20T11:32:08;101312.40;;;11.49;57.24
61478;BME280;47345;52.334;10.392;2023-04-20T11:34:39;101305.98;;;11.57;57.34
61478;BME280;47345;52.334;10.392;2023-04-20T11:37:11;101296.96;;;11.67;58.48
61478;BME280;47345;52.334;10.392;2023-04-20T11:39:42;101299.15;;;11.79;58.06
61478;BME280;47345;52.334;10.392;2023-04-20T11:42:13;101292.46;;;11.90;57.26
61478;BME280;47345;52.334;10.392;2023-04-20T11:44:43;101291.65;;;11.99;56.11
61478;BME280;47345;52.334;10.392;2023-04-20T11:47:14;101287.44;;;12.08;56.44
61478;BME280;47345;52.334;10.392;2023-04-20T11:49:44;101283.68;;;12.17;56.19
61478;BME280;47345;52.334;10.392;2023-04-20T11:52:15;101284.31;;;12.30;56.91
61478;BME280;47345;52.334;10.392;2023-04-20T11:54:45;101282.58;;;12.40;55.55
61478;BME280;47345;52.334;10.392;2023-04-20T11:57:16;101285.44;;;12.48;55.22
61478;BME280;47345;52.334;10.392;2023-04-20T11:59:47;101283.18;;;12.51;54.41
61478;BME280;47345;52.334;10.392;2023-04-20T12:02:17;101282.06;;;12.52;54.11
61478;BME280;47345;52.334;10.392;2023-04-20T12:04:48;101274.89;;;12.54;54.85
61478;BME280;47345;52.334;10.392;2023-04-20T12:07:19;101286.52;;;12.59;54.63
61478;BME280;47345;52.334;10.392;2023-04-20T12:09:51;101282.63;;;12.59;53.95
61478;BME280;47345;52.334;10.392;2023-04-20T12:12:22;101284.70;;;12.60;54.73
61478;BME280;47345;52.334;10.392;2023-04-20T12:14:52;101280.83;;;12.61;53.57
61478;BME280;47345;52.334;10.392;2023-04-20T12:17:23;101278.04;;;12.62;53.35
61478;BME280;47345;52.334;10.392;2023-04-20T12:19:53;101276.69;;;12.63;53.33
61478;BME280;47345;52.334;10.392;2023-04-20T12:22:26;101272.46;;;12.64;53.29
61478;BME280;47345;52.334;10.392;2023-04-20T12:24:56;101275.84;;;12.63;52.88
61478;BME280;47345;52.334;10.392;2023-04-20T12:27:27;101273.86;;;12.62;54.05
61478;BME280;47345;52.334;10.392;2023-04-20T12:29:57;101276.86;;;12.62;53.81
61478;BME280;47345;52.334;10.392;2023-04-20T12:32:28;101269.23;;;12.57;53.28
61478;BME280;47345;52.334;10.392;2023-04-20T12:34:58;101273.97;;;12.56;54.08
61478;BME280;47345;52.334;10.392;2023-04-20T12:37:29;101271.64;;;12.55;54.35
61478;BME280;47345;52.334;10.392;2023-04-20T12:40:00;101265.31;;;12.54;54.02
61478;BME280;47345;52.334;10.392;2023-04-20T12:42:32;101265.55;;;12.50;53.61
61478;BME280;47345;52.334;10.392;2023-04-20T12:45:02;101258.43;;;12.43;53.26
61478;BME280;47345;52.334;10.392;2023-04-20T12:47:33;101262.73;;;12.37;53.80
61478;BME280;47345;52.334;10.392;2023-04-20T12:50:04;101262.59;;;12.33;54.23
61478;BME280;47345;52.334;10.392;2023-04-20T12:52:36;101263.97;;;12.30;54.33
61478;BME280;47345;52.334;10.392;2023-04-20T12:55:08;101267.03;;;12.26;54.05
61478;BME280;47345;52.334;10.392;2023-04-20T12:57:40;101266.56;;;12.20;53.43
61478;BME280;47345;52.334;10.392;2023-04-20T13:00:11;101265.95;;;12.14;54.69
61478;BME280;47345;52.334;10.392;2023-04-20T13:02:43;101263.66;;;12.12;54.72
61478;BME280;47345;52.334;10.392;2023-04-20T13:05:14;101262.84;;;12.06;54.34
61478;BME280;47345;52.334;10.392;2023-04-20T13:07:44;101259.16;;;11.99;55.90
61478;BME280;47345;52.334;10.392;2023-04-20T13:10:15;101257.64;;;11.91;57.60